sensor_id;sensor_type;location;lat;lon;timestamp;temperature;humidity
56336;DHT22;42241;53.510;10.170;2023-03-14T00:00:13;11.10;99.90
56336;DHT22;42241;53.510;10.170;2023-03-14T00:02:39;11.00;99.90
56336;DHT22;42241;53.510;10.170;2023-03-14T00:05:07;11.00;99.90
56336;DHT22;42241;53.510;10.170;2023-03-14T00:07:36;11.00;99.90
56336;DHT22;42241;53.510;10.170;2023-03-14T00:10:06;10.90;99.90
56336;DHT22;42241;53.510;10.170;2023-03-14T00:12:33;10.80;99.90
56336;DHT22;42241;53.510;10.170;2023-03-14T00:14:58;10.80;99.90
56336;DHT22;42241;53.510;10.170;2023-03-14T00:17:31;10.70;99.90
56336;DHT22;42241;53.510;10.170;2023-03-14T00:19:56;10.70;99.90
56336;DHT22;42241;53.510;10.170;2023-03-14T00:22:22;10.80;99.90
56336;DHT22;42241;53.510;10.170;2023-03-14T00:24:48;10.80;99.90
56336;DHT22;42241;53.510;10.170;2023-03-14T00:27:13;10.80;99.90
56336;DHT22;42241;53.510;10.170;2023-03-14T00:29:42;10.80;99.90
56336;DHT22;42241;53.510;10.170;2023-03-14T00:32:07;10.70;99.90
56336;DHT22;42241;53.510;10.170;2023-03-14T00:34:35;10.70;99.90
56336;DHT22;42241;53.510;10.170;2023-03-14T00:37:01;10.60;99.90
56336;DHT22;42241;53.510;10.170;2023-03-14T00:39:27;10.60;99.90
56336;DHT22;42241;53.510;10.170;2023-03-14T00:41:54;10.60;99.90
56336;DHT22;42241;53.510;10.170;2023-03-14T00:44:20;10.50;99.90
56336;DHT22;42241;53.510;10.170;2023-03-14T00:46:45;10.50;99.90
56336;DHT22;42241;53.510;10.170;2023-03-14T00:49:11;10.40;99.90
56336;DHT22;42241;53.510;10.170;2023-03-14T00:51:41;10.30;99.90
56336;DHT22;42241;53.510;10.170;2023-03-14T00:54:06;10.30;99.90
56336;DHT22;42241;53.510;10.170;2023-03-14T00:56:32;10.30;99.90
56336;DHT22;42241;53.510;10.170;2023-03-14T00:58:57;10.30;99.90
56336;DHT22;42241;53.510;10.170;2023-03-14T01:01:23;10.30;99.90
56336;DHT22;42241;53.510;10.170;2023-03-14T01:03:54;10.30;99.90
56336;DHT22;42241;53.510;10.170;2023-03-14T01:06:23;10.30;99.90
56336;DHT22;42241;53.510;10.170;2023-03-14T01:08:51;10.20;99.90
56336;DHT22;42241;53.510;10.170;2023-03-14T01:11:18;10.20;99.90
56336;DHT22;42241;53.510;10.170;2023-03-14T01:13:46;10.30;99.90
56336;DHT22;42241;53.510;10.170;2023-03-14T01:16:12;10.30;99.90
56336;DHT22;42241;53.510;10.170;2023-03-14T01:18:38;10.30;99.90
56336;DHT22;42241;53.510;10.170;2023-03-14T01:21:09;10.20;99.90
56336;DHT22;42241;53.510;10.170;2023-03-14T01:23:37;10.20;99.90
56336;DHT22;42241;53.510;10.170;2023-03-14T01:26:03;10.20;99.90
56336;DHT22;42241;53.510;10.170;2023-03-14T01:28:28;10.20;99.90
56336;DHT22;42241;53.510;10.170;2023-03-14T01:31:01;10.30;99.90
56336;DHT22;42241;53.510;10.170;2023-03-14T01:33:27;10.30;99.90
56336;DHT22;42241;53.510;10.170;2023-03-14T01:35:52;10.30;99.90
56336;DHT22;42241;53.510;10.170;2023-03-14T01:38:20;10.20;99.90
56336;DHT22;42241;53.510;10.170;2023-03-14T01:40:45;10.20;99.90
56336;DHT22;42241;53.510;10.170;2023-03-14T01:43:17;10.20;99.90
56336;DHT22;42241;53.510;10.170;2023-03-14T01:48:24;10.20;99.90
56336;DHT22;42241;53.510;10.170;2023-03-14T01:50:50;10.20;99.90
56336;DHT22;42241;53.510;10.170;2023-03-14T01:53:16;10.20;99.90
56336;DHT22;42241;53.510;10.170;2023-03-14T01:55:44;10.20;99.90
56336;DHT22;42241;53.510;10.170;2023-03-14T01:58:10;10.30;99.90
56336;DHT22;42241;53.510;10.170;2023-03-14T02:00:40;10.30;99.90
56336;DHT22;42241;53.510;10.170;2023-03-14T02:03:07;10.30;99.90
56336;DHT22;42241;53.510;10.170;2023-03-14T02:05:34;10.40;99.90
56336;DHT22;42241;53.510;10.170;2023-03-14T02:08:01;10.40;99.90
56336;DHT22;42241;53.510;10.170;2023-03-14T02:10:28;10.50;99.90
56336;DHT22;42241;53.510;10.170;2023-03-14T02:12:55;10.50;99.90
56336;DHT22;42241;53.510;10.170;2023-03-14T02:15:23;10.50;99.90
56336;DHT22;42241;53.510;10.170;2023-03-14T02:17:48;10.50;99.90
56336;DHT22;42241;53.510;10.170;2023-03-14T02:20:32;10.50;99.90
56336;DHT22;42241;53.510;10.170;2023-03-14T02:22:59;10.60;99.90
56336;DHT22;42241;53.510;10.170;2023-03-14T02:27:55;10.60;99.90
56336;DHT22;42241;53.510;10.170;2023-03-14T02:30:22;10.60;99.90
56336;DHT22;42241;53.510;10.170;2023-03-14T02:32:57;10.60;99.90
56336;DHT22;42241;53.510;10.170;2023-03-14T02:35:29;10.60;99.90
56336;DHT22;42241;53.510;10.170;2023-03-14T02:38:00;10.60;99.90
56336;DHT22;42241;53.510;10.170;2023-03-14T02:40:28;10.60;99.90
56336;DHT22;42241;53.510;10.170;2023-03-14T02:42:56;10.50;99.90
56336;DHT22;42241;53.510;10.170;2023-03-14T02:47:49;10.50;99.90
56336;DHT22;42241;53.510;10.170;2023-03-14T02:50:17;10.50;99.90
56336;DHT22;42241;53.510;10.170;2023-03-14T02:52:48;10.40;99.90
56336;DHT22;42241;53.510;10.170;2023-03-14T02:55:20;10.50;99.90
56336;DHT22;42241;53.510;10.170;2023-03-14T02:57:45;10.40;99.90
56336;DHT22;42241;53.510;10.170;2023-03-14T03:00:11;10.30;99.90
56336;DHT22;42241;53.510;10.170;2023-03-14T03:02:42;10.30;99.90
56336;DHT22;42241;53.510;10.170;2023-03-14T03:05:10;10.30;99.90
56336;DHT22;42241;53.510;10.170;2023-03-14T03:07:35;10.30;99.90
56336;DHT22;42241;53.510;10.170;2023-03-14T03:10:01;10.30;99.90
56336;DHT22;42241;53.510;10.170;2023-03-14T03:12:26;10.30;99.90
56336;DHT22;42241;53.510;10.170;2023-03-14T03:14:52;10.20;99.90
56336;DHT22;42241;53.510;10.170;2023-03-14T03:17:19;10.30;99.90
56336;DHT22;42241;53.510;10.170;2023-03-14T03:19:45;10.30;99.90
56336;DHT22;42241;53.510;10.170;2023-03-14T03:22:10;10.40;99.90
56336;DHT22;42241;53.510;10.170;2023-03-14T03:24:38;10.40;99.90
56336;DHT22;42241;53.510;10.170;2023-03-14T03:27:05;10.40;99.90
56336;DHT22;42241;53.510;10.170;2023-03-14T03:29:30;10.40;99.90
56336;DHT22;42241;53.510;10.170;2023-03-14T03:31:56;10.40;99.90
56336;DHT22;42241;53.510;10.170;2023-03-14T03:34:21;10.50;99.90
56336;DHT22;42241;53.510;10.170;2023-03-14T03:36:49;10.50;99.90
56336;DHT22;42241;53.510;10.170;2023-03-14T03:39:15;10.50;99.90
56336;DHT22;42241;53.510;10.170;2023-03-14T03:41:43;10.50;99.90
56336;DHT22;42241;53.510;10.170;2023-03-14T03:44:11;10.50;99.90
56336;DHT22;42241;53.510;10.170;2023-03-14T03:46:40;10.50;99.90
56336;DHT22;42241;53.510;10.170;2023-03-14T03:49:05;10.50;99.90
56336;DHT22;42241;53.510;10.170;2023-03-14T03:51:31;10.50;99.90
56336;DHT22;42241;53.510;10.170;2023-03-14T03:53:56;10.50;99.90
56336;DHT22;42241;53.510;10.170;2023-03-14T03:56:22;10.50;99.90
56336;DHT22;42241;53.510;10.170;2023-03-14T03:58:48;10.40;99.90
56336;DHT22;42241;53.510;10.170;2023-03-14T04:01:13;10.40;99.90
56336;DHT22;42241;53.510;10.170;2023-03-14T04:03:41;10.30;99.90
56336;DHT22;42241;53.510;10.170;2023-03-14T04:06:08;10.30;99.90
56336;DHT22;42241;53.510;10.170;2023-03-14T04:08:33;10.20;99.90
56336;DHT22;42241;53.510;10.170;2023-03-14T04:11:01;10.20;99.90
56336;DHT22;42241;53.510;10.170;2023-03-14T04:13:27;10.10;99.90
56336;DHT22;42241;53.510;10.170;2023-03-14T04:15:55;10.20;99.90
56336;DHT22;42241;53.510;10.170;2023-03-14T04:18:23;10.30;99.90
56336;DHT22;42241;53.510;10.170;2023-03-14T04:20:55;10.30;99.90
56336;DHT22;42241;53.510;10.170;2023-03-14T04:23:22;10.30;99.90
56336;DHT22;42241;53.510;10.170;2023-03-14T04:25:50;10.30;99.90
56336;DHT22;42241;53.510;10.170;2023-03-14T04:28:15;10.30;99.90
56336;DHT22;42241;53.510;10.170;2023-03-14T04:30:43;10.30;99.90
56336;DHT22;42241;53.510;10.170;2023-03-14T04:33:09;10.30;99.90
56336;DHT22;42241;53.510;10.170;2023-03-14T04:35:37;10.30;99.90
56336;DHT22;42241;53.510;10.170;2023-03-14T04:38:03;10.40;99.90
56336;DHT22;42241;53.510;10.170;2023-03-14T04:40:28;10.50;99.90
56336;DHT22;42241;53.510;10.170;2023-03-14T04:42:54;10.50;99.90
56336;DHT22;42241;53.510;10.170;2023-03-14T04:45:20;10.60;99.90
56336;DHT22;42241;53.510;10.170;2023-03-14T04:47:45;10.60;99.90
56336;DHT22;42241;53.510;10.170;2023-03-14T04:50:11;10.60;99.90
56336;DHT22;42241;53.510;10.170;2023-03-14T04:52:38;10.60;99.90
56336;DHT22;42241;53.510;10.170;2023-03-14T04:55:06;10.60;99.90
56336;DHT22;42241;53.510;10.170;2023-03-14T04:57:32;10.60;99.90
56336;DHT22;42241;53.510;10.170;2023-03-14T04:59:57;10.60;99.90
56336;DHT22;42241;53.510;10.170;2023-03-14T05:02:22;10.60;99.90
56336;DHT22;42241;53.510;10.170;2023-03-14T05:04:48;10.70;99.90
56336;DHT22;42241;53.510;10.170;2023-03-14T05:07:16;10.70;99.90
56336;DHT22;42241;53.510;10.170;2023-03-14T05:09:41;10.70;99.90
56336;DHT22;42241;53.510;10.170;2023-03-14T05:12:09;10.80;99.90
56336;DHT22;42241;53.510;10.170;2023-03-14T05:14:34;10.80;99.90
56336;DHT22;42241;53.510;10.170;2023-03-14T05:17:00;10.80;99.90
56336;DHT22;42241;53.510;10.170;2023-03-14T05:19:25;10.80;99.90
56336;DHT22;42241;53.510;10.170;2023-03-14T05:21:51;10.80;99.90
56336;DHT22;42241;53.510;10.170;2023-03-14T05:24:16;10.80;99.90
56336;DHT22;42241;53.510;10.170;2023-03-14T05:26:42;10.60;99.90
56336;DHT22;42241;53.510;10.170;2023-03-14T05:29:07;10.60;99.90
56336;DHT22;42241;53.510;10.170;2023-03-14T05:31:38;10.60;99.90
56336;DHT22;42241;53.510;10.170;2023-03-14T05:34:05;10.50;99.90
56336;DHT22;42241;53.510;10.170;2023-03-14T05:36:33;10.50;99.90
56336;DHT22;42241;53.510;10.170;2023-03-14T05:39:01;10.50;99.90
56336;DHT22;42241;53.510;10.170;2023-03-14T05:41:30;10.50;99.90
56336;DHT22;42241;53.510;10.170;2023-03-14T05:43:55;10.50;99.90
56336;DHT22;42241;53.510;10.170;2023-03-14T05:46:23;10.50;99.90
56336;DHT22;42241;53.510;10.170;2023-03-14T05:48:49;10.40;99.90
56336;DHT22;42241;53.510;10.170;2023-03-14T05:51:19;10.40;99.90
56336;DHT22;42241;53.510;10.170;2023-03-14T05:53:47;10.40;99.90
56336;DHT22;42241;53.510;10.170;2023-03-14T05:56:17;10.40;99.90
56336;DHT22;42241;53.510;10.170;2023-03-14T05:58:43;10.40;99.90
56336;DHT22;42241;53.510;10.170;2023-03-14T06:01:11;10.50;99.90
56336;DHT22;42241;53.510;10.170;2023-03-14T06:03:38;10.50;99.90
56336;DHT22;42241;53.510;10.170;2023-03-14T06:06:04;10.40;99.90
56336;DHT22;42241;53.510;10.170;2023-03-14T06:08:30;10.40;99.90
56336;DHT22;42241;53.510;10.170;2023-03-14T06:10:57;10.40;99.90
56336;DHT22;42241;53.510;10.170;2023-03-14T06:13:23;10.40;99.90
56336;DHT22;42241;53.510;10.170;2023-03-14T06:15:49;10.40;99.90
56336;DHT22;42241;53.510;10.170;2023-03-14T06:18:14;10.40;99.90
56336;DHT22;42241;53.510;10.170;2023-03-14T06:20:42;10.50;99.90
56336;DHT22;42241;53.510;10.170;2023-03-14T06:23:08;10.50;99.90
56336;DHT22;42241;53.510;10.170;2023-03-14T06:25:36;10.50;99.90
56336;DHT22;42241;53.510;10.170;2023-03-14T06:28:02;10.50;99.90
56336;DHT22;42241;53.510;10.170;2023-03-14T06:30:27;10.50;99.90
56336;DHT22;42241;53.510;10.170;2023-03-14T06:32:53;10.60;99.90
56336;DHT22;42241;53.510;10.170;2023-03-14T06:35:18;10.50;99.90
56336;DHT22;42241;53.510;10.170;2023-03-14T06:37:46;10.50;99.90
56336;DHT22;42241;53.510;10.170;2023-03-14T06:40:12;10.50;99.90
56336;DHT22;42241;53.510;10.170;2023-03-14T06:42:45;10.50;99.90
56336;DHT22;42241;53.510;10.170;2023-03-14T06:45:11;10.40;99.90
56336;DHT22;42241;53.510;10.170;2023-03-14T06:47:37;10.40;99.90
56336;DHT22;42241;53.510;10.170;2023-03-14T06:50:03;10.40;99.90
56336;DHT22;42241;53.510;10.170;2023-03-14T06:52:29;10.40;99.90
56336;DHT22;42241;53.510;10.170;2023-03-14T06:54:55;10.50;99.90
56336;DHT22;42241;53.510;10.170;2023-03-14T06:57:20;10.50;99.90
56336;DHT22;42241;53.510;10.170;2023-03-14T06:59:46;10.50;99.90
56336;DHT22;42241;53.510;10.170;2023-03-14T07:02:11;10.60;99.90
56336;DHT22;42241;53.510;10.170;2023-03-14T07:04:37;10.60;99.90
56336;DHT22;42241;53.510;10.170;2023-03-14T07:07:03;10.60;99.90
56336;DHT22;42241;53.510;10.170;2023-03-14T07:09:29;10.60;99.90
56336;DHT22;42241;53.510;10.170;2023-03-14T07:11:54;10.60;99.90
56336;DHT22;42241;53.510;10.170;2023-03-14T07:14:22;10.60;99.90
56336;DHT22;42241;53.510;10.170;2023-03-14T07:16:50;10.60;99.90
56336;DHT22;42241;53.510;10.170;2023-03-14T07:19:18;10.60;99.90
56336;DHT22;42241;53.510;10.170;2023-03-14T07:21:45;10.60;99.90
56336;DHT22;42241;53.510;10.170;2023-03-14T07:24:13;10.50;99.90
56336;DHT22;42241;53.510;10.170;2023-03-14T07:26:41;10.50;99.90
56336;DHT22;42241;53.510;10.170;2023-03-14T07:29:06;10.50;99.90
56336;DHT22;42241;53.510;10.170;2023-03-14T07:31:32;10.50;99.90
56336;DHT22;42241;53.510;10.170;2023-03-14T07:34:00;10.60;99.90
56336;DHT22;42241;53.510;10.170;2023-03-14T07:36:25;10.60;99.90
56336;DHT22;42241;53.510;10.170;2023-03-14T07:38:53;10.70;99.90
56336;DHT22;42241;53.510;10.170;2023-03-14T07:41:19;10.90;99.90
56336;DHT22;42241;53.510;10.170;2023-03-14T07:43:46;11.00;99.90
56336;DHT22;42241;53.510;10.170;2023-03-14T07:46:12;11.00;99.90
56336;DHT22;42241;53.510;10.170;2023-03-14T07:48:40;11.00;99.90
56336;DHT22;42241;53.510;10.170;2023-03-14T07:51:06;11.00;99.90
56336;DHT22;42241;53.510;10.170;2023-03-14T07:53:34;11.10;99.90
56336;DHT22;42241;53.510;10.170;2023-03-14T07:56:01;11.30;99.90
56336;DHT22;42241;53.510;10.170;2023-03-14T07:58:27;11.50;99.90
56336;DHT22;42241;53.510;10.170;2023-03-14T08:00:52;11.60;99.90
56336;DHT22;42241;53.510;10.170;2023-03-14T08:03:18;11.60;99.90
56336;DHT22;42241;53.510;10.170;2023-03-14T08:05:44;11.50;99.90
56336;DHT22;42241;53.510;10.170;2023-03-14T08:08:14;11.50;99.90
56336;DHT22;42241;53.510;10.170;2023-03-14T08:10:39;11.40;99.90
56336;DHT22;42241;53.510;10.170;2023-03-14T08:13:05;11.40;99.90
56336;DHT22;42241;53.510;10.170;2023-03-14T08:15:30;11.10;99.90
56336;DHT22;42241;53.510;10.170;2023-03-14T08:17:57;11.00;99.90
56336;DHT22;42241;53.510;10.170;2023-03-14T08:20:27;10.90;99.90
56336;DHT22;42241;53.510;10.170;2023-03-14T08:22:56;11.10;99.90
56336;DHT22;42241;53.510;10.170;2023-03-14T08:25:22;11.30;99.90
56336;DHT22;42241;53.510;10.170;2023-03-14T08:27:50;11.50;99.90
56336;DHT22;42241;53.510;10.170;2023-03-14T08:30:18;12.00;99.90
56336;DHT22;42241;53.510;10.170;2023-03-14T08:32:44;12.20;99.90
56336;DHT22;42241;53.510;10.170;2023-03-14T08:35:09;12.40;99.90
56336;DHT22;42241;53.510;10.170;2023-03-14T08:37:35;12.40;99.90
56336;DHT22;42241;53.510;10.170;2023-03-14T08:40:03;12.20;99.90
56336;DHT22;42241;53.510;10.170;2023-03-14T08:42:35;12.00;99.90
56336;DHT22;42241;53.510;10.170;2023-03-14T08:45:03;11.80;99.90
56336;DHT22;42241;53.510;10.170;2023-03-14T08:47:29;11.60;99.90
56336;DHT22;42241;53.510;10.170;2023-03-14T08:49:54;11.50;99.90
56336;DHT22;42241;53.510;10.170;2023-03-14T08:52:20;11.60;99.90
56336;DHT22;42241;53.510;10.170;2023-03-14T08:54:45;11.70;99.90
56336;DHT22;42241;53.510;10.170;2023-03-14T08:57:11;11.60;99.90
56336;DHT22;42241;53.510;10.170;2023-03-14T08:59:37;11.60;99.90
56336;DHT22;42241;53.510;10.170;2023-03-14T09:02:04;11.70;99.90
56336;DHT22;42241;53.510;10.170;2023-03-14T09:04:30;11.80;99.90
56336;DHT22;42241;53.510;10.170;2023-03-14T09:06:59;12.00;99.90
56336;DHT22;42241;53.510;10.170;2023-03-14T09:09:27;12.10;99.90
56336;DHT22;42241;53.510;10.170;2023-03-14T09:11:52;12.10;99.90
56336;DHT22;42241;53.510;10.170;2023-03-14T09:14:18;12.10;99.90
56336;DHT22;42241;53.510;10.170;2023-03-14T09:16:43;12.00;99.90
56336;DHT22;42241;53.510;10.170;2023-03-14T09:19:09;11.90;99.90
56336;DHT22;42241;53.510;10.170;2023-03-14T09:21:34;12.00;99.90
56336;DHT22;42241;53.510;10.170;2023-03-14T09:24:01;11.90;99.90
56336;DHT22;42241;53.510;10.170;2023-03-14T09:26:29;12.10;99.90
56336;DHT22;42241;53.510;10.170;2023-03-14T09:28:54;12.10;99.90
56336;DHT22;42241;53.510;10.170;2023-03-14T09:31:22;12.10;99.90
56336;DHT22;42241;53.510;10.170;2023-03-14T09:33:48;12.10;99.90
56336;DHT22;42241;53.510;10.170;2023-03-14T09:36:13;12.00;99.90
56336;DHT22;42241;53.510;10.170;2023-03-14T09:38:39;11.90;99.90
56336;DHT22;42241;53.510;10.170;2023-03-14T09:41:15;11.80;99.90
56336;DHT22;42241;53.510;10.170;2023-03-14T09:43:41;11.60;99.90
56336;DHT22;42241;53.510;10.170;2023-03-14T09:46:07;11.70;99.90
56336;DHT22;42241;53.510;10.170;2023-03-14T09:48:34;11.80;99.90
56336;DHT22;42241;53.510;10.170;2023-03-14T09:51:04;11.90;99.90
56336;DHT22;42241;53.510;10.170;2023-03-14T09:53:37;11.80;99.90
56336;DHT22;42241;53.510;10.170;2023-03-14T09:56:08;11.80;99.90
56336;DHT22;42241;53.510;10.170;2023-03-14T09:58:36;11.80;99.90
56336;DHT22;42241;53.510;10.170;2023-03-14T10:01:02;11.70;99.90
56336;DHT22;42241;53.510;10.170;2023-03-14T10:03:34;11.60;99.90
56336;DHT22;42241;53.510;10.170;2023-03-14T10:06:02;11.40;99.90
56336;DHT22;42241;53.510;10.170;2023-03-14T10:08:31;11.30;99.90
56336;DHT22;42241;53.510;10.170;2023-03-14T10:10:57;11.10;99.90
56336;DHT22;42241;53.510;10.170;2023-03-14T10:13:26;10.90;99.90
56336;DHT22;42241;53.510;10.170;2023-03-14T10:16:03;10.60;99.90
56336;DHT22;42241;53.510;10.170;2023-03-14T10:18:31;10.20;99.90
56336;DHT22;42241;53.510;10.170;2023-03-14T10:23:28;9.50;99.90
56336;DHT22;42241;53.510;10.170;2023-03-14T10:28:32;9.30;99.90
56336;DHT22;42241;53.510;10.170;2023-03-14T10:31:01;9.30;99.90
56336;DHT22;42241;53.510;10.170;2023-03-14T10:33:28;9.30;99.90
56336;DHT22;42241;53.510;10.170;2023-03-14T10:35:57;9.40;99.90
56336;DHT22;42241;53.510;10.170;2023-03-14T10:38:27;9.30;99.90
56336;DHT22;42241;53.510;10.170;2023-03-14T10:40:53;9.30;99.90
56336;DHT22;42241;53.510;10.170;2023-03-14T10:43:21;9.20;99.90
56336;DHT22;42241;53.510;10.170;2023-03-14T10:46:00;9.10;99.90
56336;DHT22;42241;53.510;10.170;2023-03-14T10:53:49;8.60;99.90
56336;DHT22;42241;53.510;10.170;2023-03-14T10:56:17;8.50;99.90
56336;DHT22;42241;53.510;10.170;2023-03-14T10:58:44;8.50;99.90
56336;DHT22;42241;53.510;10.170;2023-03-14T11:01:14;8.30;99.90
56336;DHT22;42241;53.510;10.170;2023-03-14T11:03:47;8.20;99.90
56336;DHT22;42241;53.510;10.170;2023-03-14T11:06:17;7.90;99.90
56336;DHT22;42241;53.510;10.170;2023-03-14T11:08:55;7.70;99.90
56336;DHT22;42241;53.510;10.170;2023-03-14T11:11:23;7.50;99.90
56336;DHT22;42241;53.510;10.170;2023-03-14T11:21:52;7.20;99.90
56336;DHT22;42241;53.510;10.170;2023-03-14T11:27:00;7.00;99.90
56336;DHT22;42241;53.510;10.170;2023-03-14T11:34:55;6.90;99.90
56336;DHT22;42241;53.510;10.170;2023-03-14T11:42:36;6.80;99.90
56336;DHT22;42241;53.510;10.170;2023-03-14T11:45:02;6.70;99.90
56336;DHT22;42241;53.510;10.170;2023-03-14T11:47:39;6.80;99.90
56336;DHT22;42241;53.510;10.170;2023-03-14T11:50:21;6.60;99.90
56336;DHT22;42241;53.510;10.170;2023-03-14T11:53:10;6.50;99.90
56336;DHT22;42241;53.510;10.170;2023-03-14T11:55:37;6.60;99.90
56336;DHT22;42241;53.510;10.170;2023-03-14T11:58:12;6.50;99.90
56336;DHT22;42241;53.510;10.170;2023-03-14T12:00:42;6.60;99.90
56336;DHT22;42241;53.510;10.170;2023-03-14T12:03:14;6.60;99.90
56336;DHT22;42241;53.510;10.170;2023-03-14T12:08:17;6.70;99.90
56336;DHT22;42241;53.510;10.170;2023-03-14T12:13:16;6.80;99.90
56336;DHT22;42241;53.510;10.170;2023-03-14T12:15:55;6.90;99.90
56336;DHT22;42241;53.510;10.170;2023-03-14T12:18:40;6.90;99.90
56336;DHT22;42241;53.510;10.170;2023-03-14T12:21:09;6.90;99.90
56336;DHT22;42241;53.510;10.170;2023-03-14T12:26:12;6.70;99.90
56336;DHT22;42241;53.510;10.170;2023-03-14T12:28:39;6.60;99.90
56336;DHT22;42241;53.510;10.170;2023-03-14T12:34:00;6.70;99.90
56336;DHT22;42241;53.510;10.170;2023-03-14T12:39:20;7.00;99.90
56336;DHT22;42241;53.510;10.170;2023-03-14T12:44:40;7.00;99.90
56336;DHT22;42241;53.510;10.170;2023-03-14T12:49:44;7.00;99.90
56336;DHT22;42241;53.510;10.170;2023-03-14T12:52:16;7.10;99.90
56336;DHT22;42241;53.510;10.170;2023-03-14T12:59:52;7.20;99.90
56336;DHT22;42241;53.510;10.170;2023-03-14T13:02:36;7.10;99.90
56336;DHT22;42241;53.510;10.170;2023-03-14T13:05:03;7.10;99.90
56336;DHT22;42241;53.510;10.170;2023-03-14T13:09:58;7.20;99.90
56336;DHT22;42241;53.510;10.170;2023-03-14T13:12:38;7.30;99.90
56336;DHT22;42241;53.510;10.170;2023-03-14T13:15:11;7.30;99.90
56336;DHT22;42241;53.510;10.170;2023-03-14T13:17:39;7.30;99.90
56336;DHT22;42241;53.510;10.170;2023-03-14T13:20:10;7.40;99.90
56336;DHT22;42241;53.510;10.170;2023-03-14T13:22:40;7.30;99.90
56336;DHT22;42241;53.510;10.170;2023-03-14T13:25:10;7.30;99.90
56336;DHT22;42241;53.510;10.170;2023-03-14T13:27:38;7.30;99.90
56336;DHT22;42241;53.510;10.170;2023-03-14T13:30:14;7.40;99.90
56336;DHT22;42241;53.510;10.170;2023-03-14T13:32:41;7.50;99.90
56336;DHT22;42241;53.510;10.170;2023-03-14T13:35:16;7.60;99.90
56336;DHT22;42241;53.510;10.170;2023-03-14T13:37:45;7.60;99.90
56336;DHT22;42241;53.510;10.170;2023-03-14T13:40:24;7.60;99.90
56336;DHT22;42241;53.510;10.170;2023-03-14T13:42:50;7.60;99.90
56336;DHT22;42241;53.510;10.170;2023-03-14T13:45:24;7.60;99.90
56336;DHT22;42241;53.510;10.170;2023-03-14T13:47:51;7.60;99.90
56336;DHT22;42241;53.510;10.170;2023-03-14T13:50:17;7.70;99.90
56336;DHT22;42241;53.510;10.170;2023-03-14T13:52:43;7.70;99.90
56336;DHT22;42241;53.510;10.170;2023-03-14T13:55:16;7.80;99.90
56336;DHT22;42241;53.510;10.170;2023-03-14T13:57:44;7.80;99.90
56336;DHT22;42241;53.510;10.170;2023-03-14T14:00:44;8.00;99.90
56336;DHT22;42241;53.510;10.170;2023-03-14T14:03:08;7.90;99.90
56336;DHT22;42241;53.510;10.170;2023-03-14T14:05:35;8.00;99.90
56336;DHT22;42241;53.510;10.170;2023-03-14T14:08:02;7.90;99.90
56336;DHT22;42241;53.510;10.170;2023-03-14T14:10:29;7.90;99.90
56336;DHT22;42241;53.510;10.170;2023-03-14T14:12:58;7.90;99.90
56336;DHT22;42241;53.510;10.170;2023-03-14T14:15:26;8.00;99.90
56336;DHT22;42241;53.510;10.170;2023-03-14T14:17:53;7.90;99.90
56336;DHT22;42241;53.510;10.170;2023-03-14T14:20:38;7.70;99.90
56336;DHT22;42241;53.510;10.170;2023-03-14T14:23:07;7.50;99.90
56336;DHT22;42241;53.510;10.170;2023-03-14T14:25:35;7.30;99.90
56336;DHT22;42241;53.510;10.170;2023-03-14T14:28:14;7.20;99.90
56336;DHT22;42241;53.510;10.170;2023-03-14T14:30:40;7.10;99.90
56336;DHT22;42241;53.510;10.170;2023-03-14T14:33:19;7.20;99.90
56336;DHT22;42241;53.510;10.170;2023-03-14T14:35:55;7.50;99.90
56336;DHT22;42241;53.510;10.170;2023-03-14T14:38:24;7.70;99.90
56336;DHT22;42241;53.510;10.170;2023-03-14T14:40:50;7.60;99.90
56336;DHT22;42241;53.510;10.170;2023-03-14T14:43:22;7.40;99.90
56336;DHT22;42241;53.510;10.170;2023-03-14T14:45:49;7.50;99.90
56336;DHT22;42241;53.510;10.170;2023-03-14T14:48:17;7.60;99.90
56336;DHT22;42241;53.510;10.170;2023-03-14T14:55:56;7.50;99.90
56336;DHT22;42241;53.510;10.170;2023-03-14T14:58:29;7.30;99.90
56336;DHT22;42241;53.510;10.170;2023-03-14T15:03:26;7.20;99.90
56336;DHT22;42241;53.510;10.170;2023-03-14T15:05:53;7.10;99.90
56336;DHT22;42241;53.510;10.170;2023-03-14T15:08:20;7.10;99.90
56336;DHT22;42241;53.510;10.170;2023-03-14T15:10:46;7.10;99.90
56336;DHT22;42241;53.510;10.170;2023-03-14T15:13:11;7.10;99.90
56336;DHT22;42241;53.510;10.170;2023-03-14T15:15:37;7.20;99.90
56336;DHT22;42241;53.510;10.170;2023-03-14T15:18:08;7.20;99.90
56336;DHT22;42241;53.510;10.170;2023-03-14T15:20:34;7.00;99.90
56336;DHT22;42241;53.510;10.170;2023-03-14T15:22:59;7.10;99.90
56336;DHT22;42241;53.510;10.170;2023-03-14T15:25:25;7.00;99.90
56336;DHT22;42241;53.510;10.170;2023-03-14T15:27:50;7.00;99.90
56336;DHT22;42241;53.510;10.170;2023-03-14T15:30:18;6.80;99.90
56336;DHT22;42241;53.510;10.170;2023-03-14T15:32:44;6.70;99.90
56336;DHT22;42241;53.510;10.170;2023-03-14T15:35:10;6.70;99.90
56336;DHT22;42241;53.510;10.170;2023-03-14T15:37:39;6.80;99.90
56336;DHT22;42241;53.510;10.170;2023-03-14T15:40:09;6.90;99.90
56336;DHT22;42241;53.510;10.170;2023-03-14T15:42:39;7.00;99.90
56336;DHT22;42241;53.510;10.170;2023-03-14T15:45:05;7.00;99.90
56336;DHT22;42241;53.510;10.170;2023-03-14T15:47:30;6.90;99.90
56336;DHT22;42241;53.510;10.170;2023-03-14T15:49:58;6.80;99.90
56336;DHT22;42241;53.510;10.170;2023-03-14T15:52:24;6.80;99.90
56336;DHT22;42241;53.510;10.170;2023-03-14T15:54:49;6.80;99.90
56336;DHT22;42241;53.510;10.170;2023-03-14T15:57:17;6.70;99.90
56336;DHT22;42241;53.510;10.170;2023-03-14T15:59:42;6.60;99.90
56336;DHT22;42241;53.510;10.170;2023-03-14T16:02:09;6.60;99.90
56336;DHT22;42241;53.510;10.170;2023-03-14T16:04:35;6.60;99.90
56336;DHT22;42241;53.510;10.170;2023-03-14T16:07:03;6.50;99.90
56336;DHT22;42241;53.510;10.170;2023-03-14T16:09:28;6.40;99.90
56336;DHT22;42241;53.510;10.170;2023-03-14T16:11:54;6.40;99.90
56336;DHT22;42241;53.510;10.170;2023-03-14T16:14:19;6.40;99.90
56336;DHT22;42241;53.510;10.170;2023-03-14T16:16:47;6.40;99.90
56336;DHT22;42241;53.510;10.170;2023-03-14T16:19:12;6.40;99.90
56336;DHT22;42241;53.510;10.170;2023-03-14T16:21:40;6.40;99.90
56336;DHT22;42241;53.510;10.170;2023-03-14T16:24:07;6.30;99.90
56336;DHT22;42241;53.510;10.170;2023-03-14T16:26:35;6.40;99.90
56336;DHT22;42241;53.510;10.170;2023-03-14T16:29:03;6.40;99.90
56336;DHT22;42241;53.510;10.170;2023-03-14T16:31:29;6.30;99.90
56336;DHT22;42241;53.510;10.170;2023-03-14T16:34:00;6.30;99.90
56336;DHT22;42241;53.510;10.170;2023-03-14T16:36:30;6.20;99.90